createdAt,value
2017-10-31T00:00:05.469Z,77.72
2017-10-31T00:01:05.342Z,77.53
2017-10-31T00:02:05.213Z,77.63
2017-10-31T00:03:05.087Z,77.72
2017-10-31T00:04:04.956Z,77.72
2017-10-31T00:05:04.831Z,77.53
2017-10-31T00:06:04.703Z,77.01
2017-10-31T00:07:04.574Z,76.68
2017-10-31T00:08:04.445Z,76.59
2017-10-31T00:09:04.318Z,76.68
2017-10-31T00:10:04.192Z,76.21
2017-10-31T00:11:04.066Z,76.12
2017-10-31T00:12:03.935Z,75.96
2017-10-31T00:13:03.809Z,75.93
2017-10-31T00:14:03.684Z,75.83
2017-10-31T00:15:03.553Z,76.31
2017-10-31T00:16:03.424Z,76.12
2017-10-31T00:17:03.297Z,76.31
2017-10-31T00:18:03.168Z,76.12
2017-10-31T00:19:03.169Z,76.12
2017-10-31T00:20:02.916Z,76.02
2017-10-31T00:21:02.787Z,76.21
2017-10-31T00:22:02.661Z,76.31
2017-10-31T00:23:02.532Z,76.59
2017-10-31T00:24:02.402Z,76.78
2017-10-31T00:25:02.277Z,76.68
2017-10-31T00:26:02.151Z,76.68
2017-10-31T00:27:02.024Z,76.59
2017-10-31T00:28:01.893Z,76.59
2017-10-31T00:29:01.767Z,76.31
2017-10-31T00:30:01.640Z,76.50
2017-10-31T00:31:01.513Z,76.59
2017-10-31T00:32:01.384Z,76.50
2017-10-31T00:33:01.254Z,75.55
2017-10-31T00:34:01.127Z,76.21
2017-10-31T00:35:01.001Z,75.64
2017-10-31T00:36:00.883Z,76.31
2017-10-31T00:37:00.745Z,76.31
2017-10-31T00:38:00.619Z,76.31
2017-10-31T00:39:00.490Z,76.21
2017-10-31T00:40:00.369Z,75.74
2017-10-31T00:41:00.235Z,75.74
2017-10-31T00:42:00.108Z,75.83
2017-10-31T00:42:59.982Z,76.02
2017-10-31T00:43:59.852Z,76.02
2017-10-31T00:44:59.725Z,76.31
2017-10-31T00:45:59.597Z,76.12
2017-10-31T00:46:59.470Z,76.50
2017-10-31T00:47:59.342Z,76.59
2017-10-31T00:48:59.217Z,76.40
2017-10-31T00:49:59.090Z,76.59
2017-10-31T00:50:58.958Z,76.02
2017-10-31T00:51:58.835Z,76.59
2017-10-31T00:52:58.734Z,76.59
2017-10-31T00:53:58.577Z,76.50
2017-10-31T00:54:58.450Z,76.68
2017-10-31T00:55:58.321Z,76.78
2017-10-31T00:56:58.193Z,77.06
2017-10-31T00:57:58.067Z,77.15
2017-10-31T00:58:57.942Z,76.87
2017-10-31T00:59:57.812Z,76.97
2017-10-31T01:00:57.686Z,76.97
2017-10-31T01:01:57.557Z,76.97
2017-10-31T01:02:57.430Z,77.06
2017-10-31T01:03:57.301Z,77.25
2017-10-31T01:04:57.176Z,76.50
2017-10-31T01:05:57.047Z,76.68
2017-10-31T01:06:56.919Z,76.40
2017-10-31T01:07:56.789Z,76.97
2017-10-31T01:08:56.663Z,76.78
2017-10-31T01:09:56.536Z,76.68
2017-10-31T01:10:56.409Z,76.97
2017-10-31T01:11:56.280Z,77.25
2017-10-31T01:12:56.153Z,77.44
2017-10-31T01:13:56.025Z,76.97
2017-10-31T01:14:55.898Z,77.06
2017-10-31T01:15:55.770Z,76.50
2017-10-31T01:16:55.645Z,76.87
2017-10-31T01:17:55.517Z,76.68
2017-10-31T01:18:55.387Z,76.78
2017-10-31T01:19:55.260Z,76.78
2017-10-31T01:20:55.132Z,77.15
2017-10-31T01:21:55.004Z,77.06
2017-10-31T01:22:54.876Z,77.15
2017-10-31T01:23:54.748Z,76.87
2017-10-31T01:24:54.622Z,76.78
2017-10-31T01:25:54.493Z,76.87
2017-10-31T01:26:54.367Z,77.15
2017-10-31T01:27:54.238Z,77.15
2017-10-31T01:28:54.112Z,77.25
2017-10-31T01:29:53.983Z,77.06
2017-10-31T01:30:53.856Z,77.25
2017-10-31T01:31:53.725Z,77.25
2017-10-31T01:32:53.598Z,77.15
2017-10-31T01:33:53.472Z,76.78
2017-10-31T01:34:53.344Z,76.97
2017-10-31T01:35:53.216Z,77.06
2017-10-31T01:36:53.091Z,76.78
2017-10-31T01:37:52.960Z,76.87
2017-10-31T01:38:52.833Z,77.25
2017-10-31T01:39:52.706Z,76.87
2017-10-31T01:40:52.575Z,76.87
2017-10-31T01:41:52.451Z,76.68
2017-10-31T01:42:52.321Z,76.87
2017-10-31T01:43:52.194Z,76.59
2017-10-31T01:44:52.065Z,76.68
2017-10-31T01:45:51.937Z,76.68
2017-10-31T01:46:51.811Z,76.50
2017-10-31T01:47:51.681Z,76.87
2017-10-31T01:48:51.553Z,76.87
2017-10-31T01:49:51.426Z,77.25
2017-10-31T01:50:51.297Z,76.78
2017-10-31T01:51:51.168Z,76.55
2017-10-31T01:52:51.042Z,76.26
2017-10-31T01:53:50.915Z,76.07
2017-10-31T01:54:50.785Z,76.07
2017-10-31T01:55:50.659Z,76.17
2017-10-31T01:56:50.533Z,76.17
2017-10-31T01:57:50.402Z,76.45
2017-10-31T01:58:50.275Z,76.55
2017-10-31T01:59:50.146Z,76.45
2017-10-31T02:00:50.019Z,76.74
2017-10-31T02:01:49.891Z,76.36
2017-10-31T02:02:51.639Z,76.83
2017-10-31T02:03:49.636Z,76.07
2017-10-31T02:04:50.383Z,76.26
2017-10-31T02:05:49.380Z,76.17
2017-10-31T02:06:49.251Z,75.98
2017-10-31T02:07:49.121Z,75.79
2017-10-31T02:08:48.995Z,76.07
2017-10-31T02:09:48.868Z,75.51
2017-10-31T02:10:48.739Z,75.51
2017-10-31T02:11:48.611Z,75.51
2017-10-31T02:12:48.482Z,76.26
2017-10-31T02:13:48.354Z,76.55
2017-10-31T02:14:48.228Z,76.55
2017-10-31T02:15:48.107Z,76.45
2017-10-31T02:16:47.969Z,76.55
2017-10-31T02:17:47.846Z,75.70
2017-10-31T02:18:47.718Z,75.70
2017-10-31T02:19:47.592Z,75.51
2017-10-31T02:20:47.461Z,75.04
2017-10-31T02:21:47.329Z,75.23
2017-10-31T02:22:47.203Z,75.79
2017-10-31T02:23:47.076Z,75.32
2017-10-31T02:24:46.947Z,75.51
2017-10-31T02:25:46.819Z,75.60
2017-10-31T02:26:46.690Z,75.13
2017-10-31T02:27:46.562Z,75.23
2017-10-31T02:28:46.434Z,75.13
2017-10-31T02:29:46.305Z,75.04
2017-10-31T02:30:46.179Z,75.13
2017-10-31T02:31:46.050Z,75.04
2017-10-31T02:32:45.921Z,74.85
2017-10-31T02:33:46.386Z,75.32
2017-10-31T02:34:45.664Z,75.04
2017-10-31T02:35:45.538Z,75.32
2017-10-31T02:36:45.414Z,75.32
2017-10-31T02:37:45.282Z,75.04
2017-10-31T02:38:45.154Z,75.42
2017-10-31T02:39:45.026Z,75.79
2017-10-31T02:40:44.895Z,75.51
2017-10-31T02:41:44.770Z,75.79
2017-10-31T02:42:44.641Z,75.51
2017-10-31T02:43:44.515Z,75.32
2017-10-31T02:44:44.384Z,75.42
2017-10-31T02:45:44.257Z,75.04
2017-10-31T02:46:44.130Z,76.07
2017-10-31T02:47:43.999Z,75.79
2017-10-31T02:48:43.871Z,75.89
2017-10-31T02:49:43.743Z,75.23
2017-10-31T02:50:43.617Z,74.85
2017-10-31T02:51:43.485Z,74.57
2017-10-31T02:52:43.360Z,74.66
2017-10-31T02:53:43.228Z,74.66
2017-10-31T02:54:43.109Z,75.23
2017-10-31T02:55:42.972Z,75.13
2017-10-31T02:56:42.847Z,75.13
2017-10-31T02:57:42.719Z,75.51
2017-10-31T02:58:42.592Z,75.51
2017-10-31T02:59:42.460Z,75.13
2017-10-31T03:00:42.332Z,75.04
2017-10-31T03:01:42.204Z,75.23
2017-10-31T03:02:42.398Z,75.13
2017-10-31T03:03:41.950Z,74.76
2017-10-31T03:04:41.820Z,74.66
2017-10-31T03:05:41.693Z,74.66
2017-10-31T03:06:41.571Z,74.47
2017-10-31T03:07:41.435Z,74.28
2017-10-31T03:08:41.306Z,74.00
2017-10-31T03:09:41.179Z,73.71
2017-10-31T03:10:41.049Z,73.81
2017-10-31T03:11:40.922Z,74.09
2017-10-31T03:12:40.793Z,73.90
2017-10-31T03:13:40.666Z,74.38
2017-10-31T03:14:40.538Z,74.66
2017-10-31T03:15:40.412Z,74.28
2017-10-31T03:16:40.282Z,74.28
2017-10-31T03:17:40.164Z,73.90
2017-10-31T03:18:40.025Z,74.09
2017-10-31T03:19:39.893Z,73.90
2017-10-31T03:20:39.771Z,73.81
2017-10-31T03:21:39.740Z,74.38
2017-10-31T03:22:39.517Z,73.90
2017-10-31T03:23:39.382Z,74.28
2017-10-31T03:24:39.253Z,74.00
2017-10-31T03:25:39.127Z,74.09
2017-10-31T03:26:39.000Z,74.57
2017-10-31T03:27:38.872Z,74.28
2017-10-31T03:28:38.740Z,73.81
2017-10-31T03:29:38.615Z,73.71
2017-10-31T03:30:38.487Z,73.52
2017-10-31T03:31:38.409Z,74.19
2017-10-31T03:32:38.229Z,74.19
2017-10-31T03:33:38.102Z,74.00
2017-10-31T03:34:37.972Z,73.90
2017-10-31T03:35:37.846Z,73.81
2017-10-31T03:36:37.716Z,73.62
2017-10-31T03:37:37.587Z,74.09
2017-10-31T03:38:37.459Z,74.09
2017-10-31T03:39:37.331Z,74.00
2017-10-31T03:40:37.203Z,74.66
2017-10-31T03:41:37.075Z,74.66
2017-10-31T03:42:36.945Z,74.76
2017-10-31T03:43:36.817Z,74.57
2017-10-31T03:44:36.688Z,74.00
2017-10-31T03:45:36.559Z,74.28
2017-10-31T03:46:36.432Z,74.09
2017-10-31T03:47:36.303Z,74.09
2017-10-31T03:48:36.173Z,73.52
2017-10-31T03:49:36.046Z,73.81
2017-10-31T03:50:35.918Z,73.52
2017-10-31T03:51:35.788Z,73.52
2017-10-31T03:52:35.663Z,73.43
2017-10-31T03:53:35.534Z,73.14
2017-10-31T03:54:35.404Z,72.77
2017-10-31T03:55:35.274Z,71.83
2017-10-31T03:56:35.147Z,71.92
2017-10-31T03:57:35.018Z,71.54
2017-10-31T03:58:34.889Z,71.64
2017-10-31T03:59:34.761Z,72.11
2017-10-31T04:00:34.632Z,72.11
2017-10-31T04:01:34.505Z,71.83
2017-10-31T04:02:34.374Z,72.30
2017-10-31T04:03:34.246Z,72.67
2017-10-31T04:04:34.116Z,72.86
2017-10-31T04:05:33.991Z,73.24
2017-10-31T04:06:33.860Z,73.14
2017-10-31T04:07:33.731Z,72.86
2017-10-31T04:08:33.603Z,73.05
2017-10-31T04:09:33.474Z,73.14
2017-10-31T04:10:33.348Z,73.33
2017-10-31T04:11:33.217Z,73.33
2017-10-31T04:12:33.089Z,72.77
2017-10-31T04:13:32.960Z,72.67
2017-10-31T04:14:32.834Z,73.05
2017-10-31T04:15:32.703Z,72.67
2017-10-31T04:16:32.576Z,72.20
2017-10-31T04:17:32.447Z,71.83
2017-10-31T04:18:32.317Z,71.45
2017-10-31T04:19:32.187Z,70.69
2017-10-31T04:20:32.061Z,70.69
2017-10-31T04:21:31.932Z,70.50
2017-10-31T04:22:31.803Z,70.59
2017-10-31T04:23:31.674Z,70.69
2017-10-31T04:24:31.545Z,70.88
2017-10-31T04:25:31.416Z,70.88
2017-10-31T04:26:31.290Z,70.50
2017-10-31T04:27:31.164Z,70.50
2017-10-31T04:28:31.037Z,70.50
2017-10-31T04:29:30.904Z,70.88
2017-10-31T04:30:30.776Z,71.35
2017-10-31T04:31:30.648Z,71.26
2017-10-31T04:32:30.517Z,71.35
2017-10-31T04:33:30.389Z,70.50
2017-10-31T04:34:30.261Z,70.59
2017-10-31T04:35:30.132Z,70.50
2017-10-31T04:36:30.006Z,70.50
2017-10-31T04:37:29.874Z,70.40
2017-10-31T04:38:29.789Z,69.93
2017-10-31T04:39:29.618Z,69.74
2017-10-31T04:40:29.490Z,69.56
2017-10-31T04:41:29.361Z,69.65
2017-10-31T04:42:29.234Z,68.80
2017-10-31T04:43:29.104Z,68.80
2017-10-31T04:44:28.975Z,68.04
2017-10-31T04:45:28.845Z,67.47
2017-10-31T04:46:28.720Z,67.47
2017-10-31T04:47:28.589Z,67.29
2017-10-31T04:48:28.462Z,68.04
2017-10-31T04:49:28.333Z,68.14
2017-10-31T04:50:28.207Z,67.38
2017-10-31T04:51:28.086Z,67.19
2017-10-31T04:52:27.948Z,67.57
2017-10-31T04:53:27.819Z,67.66
2017-10-31T04:54:27.690Z,66.72
2017-10-31T04:55:27.563Z,66.25
2017-10-31T04:56:27.434Z,65.97
2017-10-31T04:57:27.304Z,65.78
2017-10-31T04:58:27.178Z,66.06
2017-10-31T04:59:27.049Z,65.87
2017-10-31T05:00:26.917Z,65.40
2017-10-31T05:01:26.791Z,65.49
2017-10-31T05:02:26.670Z,65.49
2017-10-31T05:03:26.533Z,65.78
2017-10-31T05:04:26.446Z,65.21
2017-10-31T05:05:26.276Z,65.21
2017-10-31T05:06:26.167Z,64.36
2017-10-31T05:07:26.020Z,64.54
2017-10-31T05:08:25.892Z,64.73
2017-10-31T05:09:25.763Z,63.79
2017-10-31T05:10:25.634Z,63.89
2017-10-31T05:11:25.526Z,63.70
2017-10-31T05:12:25.386Z,63.51
2017-10-31T05:13:25.328Z,62.94
2017-10-31T05:14:25.285Z,63.70
2017-10-31T05:15:24.999Z,63.70
2017-10-31T05:16:24.863Z,63.98
2017-10-31T05:17:24.734Z,63.98
2017-10-31T05:18:24.608Z,63.89
2017-10-31T05:19:24.478Z,64.73
2017-10-31T05:20:24.346Z,64.64
2017-10-31T05:21:24.218Z,64.45
2017-10-31T05:22:24.091Z,64.92
2017-10-31T05:23:23.963Z,64.64
2017-10-31T05:24:23.835Z,64.07
2017-10-31T05:25:23.704Z,63.89
2017-10-31T05:26:23.580Z,63.98
2017-10-31T05:27:23.445Z,63.79
2017-10-31T05:28:23.317Z,63.98
2017-10-31T05:29:23.191Z,63.51
2017-10-31T05:30:23.072Z,63.60
2017-10-31T05:31:22.932Z,63.60
2017-10-31T05:32:22.807Z,64.07
2017-10-31T05:33:22.676Z,64.54
2017-10-31T05:34:22.548Z,64.36
2017-10-31T05:35:22.418Z,63.79
2017-10-31T05:36:22.287Z,63.51
2017-10-31T05:37:22.231Z,63.51
2017-10-31T05:38:22.032Z,63.60
2017-10-31T05:39:21.899Z,62.85
2017-10-31T05:40:21.773Z,63.04
2017-10-31T05:41:21.645Z,63.98
2017-10-31T05:42:21.518Z,63.89
2017-10-31T05:43:21.388Z,63.60
2017-10-31T05:44:21.259Z,63.79
2017-10-31T05:45:21.131Z,63.79
2017-10-31T05:46:21.001Z,63.60
2017-10-31T05:47:20.878Z,63.70
2017-10-31T05:48:20.748Z,62.37
2017-10-31T05:49:20.615Z,60.96
2017-10-31T05:50:20.488Z,60.86
2017-10-31T05:51:20.358Z,60.86
2017-10-31T05:52:20.232Z,60.86
2017-10-31T05:53:20.103Z,61.90
2017-10-31T05:54:19.972Z,61.61
2017-10-31T05:55:19.846Z,62.09
2017-10-31T05:56:19.718Z,61.43
2017-10-31T05:57:20.453Z,60.58
2017-10-31T05:58:19.458Z,60.20
2017-10-31T05:59:19.328Z,60.01
2017-10-31T06:00:19.210Z,60.11
2017-10-31T06:01:19.076Z,60.11
2017-10-31T06:02:18.951Z,60.20
2017-10-31T06:03:18.817Z,59.92
2017-10-31T06:04:18.687Z,60.01
2017-10-31T06:05:18.560Z,59.92
2017-10-31T06:06:18.447Z,59.73
2017-10-31T06:07:18.303Z,60.30
2017-10-31T06:08:18.181Z,60.20
2017-10-31T06:09:18.047Z,60.20
2017-10-31T06:10:17.926Z,60.20
2017-10-31T06:11:17.791Z,60.11
2017-10-31T06:12:17.659Z,59.92
2017-10-31T06:13:17.533Z,60.67
2017-10-31T06:14:17.405Z,64.07
2017-10-31T06:15:17.275Z,66.72
2017-10-31T06:16:17.147Z,67.19
2017-10-31T06:17:17.017Z,66.72
2017-10-31T06:18:16.891Z,66.91
2017-10-31T06:19:16.760Z,65.11
2017-10-31T06:20:16.632Z,63.07
2017-10-31T06:21:16.504Z,61.65
2017-10-31T06:22:16.376Z,60.96
2017-10-31T06:23:16.247Z,60.61
2017-10-31T06:24:16.120Z,60.67
2017-10-31T06:25:15.992Z,60.86
2017-10-31T06:26:16.450Z,60.49
2017-10-31T06:27:15.735Z,59.63
2017-10-31T06:28:15.606Z,59.44
2017-10-31T06:29:15.479Z,58.87
2017-10-31T06:30:15.350Z,58.31
2017-10-31T06:31:15.221Z,58.59
2017-10-31T06:32:15.090Z,58.59
2017-10-31T06:33:14.965Z,58.87
2017-10-31T06:34:14.838Z,58.59
2017-10-31T06:35:14.708Z,58.40
2017-10-31T06:36:14.579Z,58.50
2017-10-31T06:37:14.458Z,58.40
2017-10-31T06:38:14.324Z,58.40
2017-10-31T06:39:14.198Z,58.78
2017-10-31T06:40:14.067Z,58.91
2017-10-31T06:41:13.939Z,58.53
2017-10-31T06:42:13.818Z,57.49
2017-10-31T06:43:13.681Z,57.49
2017-10-31T06:44:13.555Z,57.11
2017-10-31T06:45:13.423Z,57.58
2017-10-31T06:46:13.298Z,57.49
2017-10-31T06:47:13.168Z,57.58
2017-10-31T06:48:13.040Z,57.49
2017-10-31T06:49:12.924Z,57.58
2017-10-31T06:50:12.785Z,57.30
2017-10-31T06:51:12.654Z,57.58
2017-10-31T06:52:12.529Z,57.68
2017-10-31T06:53:12.401Z,57.49
2017-10-31T06:54:12.316Z,57.39
2017-10-31T06:55:12.701Z,57.49
2017-10-31T06:56:12.014Z,57.49
2017-10-31T06:57:11.893Z,57.87
2017-10-31T06:58:11.760Z,58.25
2017-10-31T06:59:11.629Z,58.53
2017-10-31T07:00:11.503Z,58.44
2017-10-31T07:01:11.375Z,57.58
2017-10-31T07:02:11.274Z,57.39
2017-10-31T07:03:11.133Z,57.87
2017-10-31T07:04:10.990Z,57.68
2017-10-31T07:05:10.860Z,57.65
2017-10-31T07:06:10.735Z,57.74
2017-10-31T07:07:10.605Z,58.31
2017-10-31T07:08:10.484Z,58.78
2017-10-31T07:09:11.615Z,59.19
2017-10-31T07:10:10.226Z,59.82
2017-10-31T07:11:10.092Z,59.63
2017-10-31T07:12:09.966Z,59.25
2017-10-31T07:13:09.840Z,58.78
2017-10-31T07:14:09.713Z,59.06
2017-10-31T07:15:09.581Z,58.97
2017-10-31T07:16:09.454Z,58.69
2017-10-31T07:17:09.326Z,58.91
2017-10-31T07:18:09.199Z,58.91
2017-10-31T07:19:09.070Z,59.19
2017-10-31T07:20:08.943Z,59.85
2017-10-31T07:21:08.814Z,59.09
2017-10-31T07:22:08.688Z,59.09
2017-10-31T07:23:08.569Z,59.38
2017-10-31T07:24:08.452Z,60.04
2017-10-31T07:25:08.303Z,59.66
2017-10-31T07:26:08.176Z,60.23
2017-10-31T07:27:08.045Z,60.42
2017-10-31T07:28:08.202Z,59.66
2017-10-31T07:29:07.791Z,59.57
2017-10-31T07:30:07.662Z,59.57
2017-10-31T07:31:07.535Z,59.38
2017-10-31T07:32:07.404Z,59.28
2017-10-31T07:33:07.281Z,59.00
2017-10-31T07:34:07.151Z,59.66
2017-10-31T07:35:07.020Z,59.38
2017-10-31T07:36:06.893Z,59.28
2017-10-31T07:37:06.765Z,59.19
2017-10-31T07:38:06.646Z,58.81
2017-10-31T07:39:06.509Z,57.49
2017-10-31T07:40:06.558Z,57.01
2017-10-31T07:41:06.262Z,57.20
2017-10-31T07:42:06.126Z,57.49
2017-10-31T07:43:05.999Z,57.87
2017-10-31T07:44:05.868Z,59.00
2017-10-31T07:45:05.744Z,58.53
2017-10-31T07:46:05.615Z,59.00
2017-10-31T07:47:05.486Z,59.00
2017-10-31T07:48:05.358Z,58.91
2017-10-31T07:49:05.230Z,58.34
2017-10-31T07:50:05.103Z,59.00
2017-10-31T07:51:04.977Z,57.33
2017-10-31T07:52:04.850Z,55.34
2017-10-31T07:53:04.718Z,53.95
2017-10-31T07:54:04.615Z,53.76
2017-10-31T07:55:04.462Z,54.71
2017-10-31T07:56:04.380Z,55.11
2017-10-31T07:57:04.226Z,53.78
2017-10-31T07:58:04.351Z,52.94
2017-10-31T07:59:03.957Z,51.16
2017-10-31T08:00:03.849Z,49.55
2017-10-31T08:01:03.713Z,49.46
2017-10-31T08:02:03.579Z,48.51
2017-10-31T08:03:03.450Z,46.90
2017-10-31T08:04:03.323Z,46.54
2017-10-31T08:05:03.197Z,46.16
2017-10-31T08:06:03.072Z,45.69
2017-10-31T08:07:02.943Z,45.12
2017-10-31T08:08:02.822Z,44.10
2017-10-31T08:09:02.693Z,43.15
2017-10-31T08:10:02.567Z,43.24
2017-10-31T08:11:02.442Z,43.05
2017-10-31T08:12:02.315Z,43.72
2017-10-31T08:13:02.195Z,44.48
2017-10-31T08:14:02.065Z,44.76
2017-10-31T08:15:01.960Z,45.52
2017-10-31T08:16:01.816Z,45.45
2017-10-31T08:17:01.693Z,44.60
2017-10-31T08:18:01.703Z,44.02
2017-10-31T08:19:01.440Z,43.08
2017-10-31T08:20:01.475Z,43.27
2017-10-31T08:21:01.212Z,43.55
2017-10-31T08:22:01.083Z,42.79
2017-10-31T08:23:00.942Z,43.46
2017-10-31T08:24:00.817Z,44.12
2017-10-31T08:25:00.691Z,43.10
2017-10-31T08:26:00.573Z,43.19
2017-10-31T08:27:00.442Z,41.49
2017-10-31T08:28:00.322Z,40.63
2017-10-31T08:29:00.197Z,40.34
2017-10-31T08:30:00.183Z,39.68
2017-10-31T08:30:59.954Z,39.98
2017-10-31T08:31:59.828Z,39.98
2017-10-31T08:32:59.701Z,39.32
2017-10-31T08:33:59.577Z,37.71
2017-10-31T08:34:59.457Z,37.42
2017-10-31T08:35:59.329Z,38.65
2017-10-31T08:36:59.207Z,39.51
2017-10-31T08:37:59.086Z,40.86
2017-10-31T08:38:58.958Z,41.03
2017-10-31T08:39:58.841Z,41.14
2017-10-31T08:40:58.733Z,41.62
2017-10-31T08:41:58.592Z,41.91
2017-10-31T08:42:58.468Z,42.86
2017-10-31T08:43:58.344Z,42.47
2017-10-31T08:44:58.232Z,44.47
2017-10-31T08:45:58.115Z,44.76
2017-10-31T08:46:57.975Z,44.26
2017-10-31T08:47:57.852Z,42.65
2017-10-31T08:48:57.731Z,41.98
2017-10-31T08:49:57.606Z,42.55
2017-10-31T08:50:59.209Z,42.08
2017-10-31T08:51:57.417Z,42.08
2017-10-31T08:52:57.236Z,40.84
2017-10-31T08:53:57.121Z,42.17
2017-10-31T08:54:56.989Z,43.21
2017-10-31T08:55:56.868Z,43.31
2017-10-31T08:56:56.747Z,42.65
2017-10-31T08:57:56.625Z,43.21
2017-10-31T08:58:56.499Z,42.36
2017-10-31T08:59:56.374Z,43.43
2017-10-31T09:00:56.252Z,43.24
2017-10-31T09:01:56.131Z,43.43
2017-10-31T09:02:56.006Z,43.26
2017-10-31T09:03:55.888Z,41.07
2017-10-31T09:04:55.764Z,39.26
2017-10-31T09:05:55.636Z,37.84
2017-10-31T09:06:55.514Z,37.55
2017-10-31T09:07:55.394Z,38.41
2017-10-31T09:08:55.268Z,38.98
2017-10-31T09:09:55.145Z,39.26
2017-10-31T09:10:55.023Z,37.86
2017-10-31T09:11:54.897Z,38.81
2017-10-31T09:12:54.778Z,38.81
2017-10-31T09:13:54.654Z,39.09
2017-10-31T09:14:54.529Z,39.19
2017-10-31T09:15:54.408Z,39.38
2017-10-31T09:16:54.283Z,39.48
2017-10-31T09:17:54.164Z,39.09
2017-10-31T09:18:54.039Z,39.12
2017-10-31T09:19:53.916Z,38.64
2017-10-31T09:20:54.474Z,37.88
2017-10-31T09:21:53.671Z,36.35
2017-10-31T09:22:53.550Z,36.08
2017-10-31T09:23:53.425Z,36.08
2017-10-31T09:24:53.306Z,36.08
2017-10-31T09:25:53.177Z,34.87
2017-10-31T09:26:53.060Z,35.74
2017-10-31T09:27:52.938Z,34.52
2017-10-31T09:28:52.811Z,33.47
2017-10-31T09:29:52.692Z,31.96
2017-10-31T09:30:52.566Z,29.40
2017-10-31T09:31:52.445Z,28.83
2017-10-31T09:32:52.323Z,29.30
2017-10-31T09:33:52.200Z,29.13
2017-10-31T09:34:52.079Z,28.00
2017-10-31T09:35:51.955Z,27.33
2017-10-31T09:36:51.837Z,27.41
2017-10-31T09:37:51.714Z,26.55
2017-10-31T09:38:51.594Z,25.52
2017-10-31T09:39:51.472Z,25.84
2017-10-31T09:40:51.354Z,24.59
2017-10-31T09:41:51.232Z,24.11
2017-10-31T09:42:51.112Z,23.35
2017-10-31T09:43:51.004Z,22.60
2017-10-31T09:44:50.877Z,21.66
2017-10-31T09:45:50.758Z,21.00
2017-10-31T09:46:50.643Z,20.98
2017-10-31T09:47:50.524Z,20.52
2017-10-31T09:48:50.407Z,21.19
2017-10-31T09:49:50.477Z,20.91
2017-10-31T09:50:50.176Z,20.15
2017-10-31T09:51:50.065Z,20.34
2017-10-31T09:52:49.945Z,19.57
2017-10-31T09:53:49.831Z,19.18
2017-10-31T09:54:49.722Z,19.38
2017-10-31T09:55:49.603Z,19.29
2017-10-31T09:56:49.489Z,19.29
2017-10-31T09:57:49.378Z,19.20
2017-10-31T09:58:49.264Z,18.13
2017-10-31T09:59:49.150Z,17.85
2017-10-31T10:00:49.042Z,17.85
2017-10-31T10:01:48.927Z,17.85
2017-10-31T10:02:48.844Z,17.29
2017-10-31T10:03:48.707Z,17.58
2017-10-31T10:04:48.598Z,17.00
2017-10-31T10:05:48.483Z,15.95
2017-10-31T10:06:48.372Z,15.87
2017-10-31T10:07:48.350Z,15.58
2017-10-31T10:08:48.153Z,14.81
2017-10-31T10:09:48.045Z,14.81
2017-10-31T10:10:47.939Z,15.01
2017-10-31T10:11:47.825Z,14.05
2017-10-31T10:12:47.715Z,14.14
2017-10-31T10:13:47.608Z,14.62
2017-10-31T10:14:47.499Z,15.77
2017-10-31T10:15:47.391Z,16.44
2017-10-31T10:16:47.280Z,15.47
2017-10-31T10:17:47.175Z,16.05
2017-10-31T10:18:47.067Z,15.58
2017-10-31T10:19:46.960Z,15.48
2017-10-31T10:20:46.849Z,15.58
2017-10-31T10:21:46.742Z,16.34
2017-10-31T10:22:46.633Z,16.15
2017-10-31T10:23:46.527Z,16.52
2017-10-31T10:24:46.421Z,16.61
2017-10-31T10:25:46.311Z,16.90
2017-10-31T10:26:46.202Z,16.90
2017-10-31T10:27:46.097Z,17.09
2017-10-31T10:28:45.990Z,18.32
2017-10-31T10:29:45.882Z,18.88
2017-10-31T10:30:45.774Z,19.64
2017-10-31T10:31:45.666Z,20.39
2017-10-31T10:32:45.570Z,20.86
2017-10-31T10:33:45.451Z,21.04
2017-10-31T10:34:45.342Z,21.71
2017-10-31T10:35:45.236Z,22.37
2017-10-31T10:36:45.124Z,22.93
2017-10-31T10:37:45.017Z,23.22
2017-10-31T10:38:44.905Z,22.44
2017-10-31T10:39:44.796Z,22.73
2017-10-31T10:40:44.685Z,23.89
2017-10-31T10:41:44.579Z,24.74
2017-10-31T10:42:44.475Z,24.16
2017-10-31T10:43:44.355Z,23.88
2017-10-31T10:44:44.241Z,24.72
2017-10-31T10:45:44.130Z,25.87
2017-10-31T10:46:44.020Z,27.11
2017-10-31T10:47:43.903Z,27.30
2017-10-31T10:48:44.518Z,27.30
2017-10-31T10:49:43.674Z,27.67
2017-10-31T10:50:43.561Z,29.11
2017-10-31T10:51:43.448Z,30.34
2017-10-31T10:52:43.330Z,30.24
2017-10-31T10:53:43.218Z,30.43
2017-10-31T10:54:43.103Z,30.53
2017-10-31T10:55:42.988Z,30.43
2017-10-31T10:56:42.874Z,30.53
2017-10-31T10:57:42.762Z,31.96
2017-10-31T10:58:42.648Z,30.42
2017-10-31T10:59:42.523Z,31.85
2017-10-31T11:00:42.409Z,32.42
2017-10-31T11:01:42.288Z,32.42
2017-10-31T11:02:42.170Z,32.42
2017-10-31T11:03:42.056Z,33.28
2017-10-31T11:04:41.936Z,31.56
2017-10-31T11:05:41.818Z,32.42
2017-10-31T11:06:41.699Z,31.64
2017-10-31T11:07:41.584Z,33.74
2017-10-31T11:08:41.465Z,33.55
2017-10-31T11:09:41.354Z,33.64
2017-10-31T11:10:41.229Z,32.50
2017-10-31T11:11:41.110Z,33.26
2017-10-31T11:12:40.991Z,35.19
2017-10-31T11:13:40.872Z,32.32
2017-10-31T11:14:40.753Z,33.00
2017-10-31T11:15:40.638Z,31.96
2017-10-31T11:16:40.516Z,32.42
2017-10-31T11:17:40.511Z,32.90
2017-10-31T11:18:40.277Z,32.14
2017-10-31T11:19:40.160Z,32.81
2017-10-31T11:20:40.045Z,32.71
2017-10-31T11:21:39.925Z,31.76
2017-10-31T11:22:39.802Z,32.23
2017-10-31T11:23:39.735Z,33.74
2017-10-31T11:24:39.563Z,33.36
2017-10-31T11:25:39.443Z,33.07
2017-10-31T11:26:39.322Z,34.60
2017-10-31T11:27:39.204Z,34.31
2017-10-31T11:28:39.088Z,34.69
2017-10-31T11:29:38.965Z,34.58
2017-10-31T11:30:38.845Z,35.06
2017-10-31T11:31:38.726Z,34.96
2017-10-31T11:32:38.608Z,35.35
2017-10-31T11:33:38.488Z,36.10
2017-10-31T11:34:38.366Z,34.67
2017-10-31T11:35:38.249Z,34.30
2017-10-31T11:36:38.130Z,35.15
2017-10-31T11:37:38.009Z,35.72
2017-10-31T11:38:37.889Z,35.74
2017-10-31T11:39:37.768Z,34.79
2017-10-31T11:40:37.650Z,33.84
2017-10-31T11:41:37.528Z,33.34
2017-10-31T11:42:37.408Z,34.41
2017-10-31T11:43:37.297Z,35.06
2017-10-31T11:44:37.174Z,35.15
2017-10-31T11:45:37.048Z,36.10
2017-10-31T11:46:36.928Z,35.64
2017-10-31T11:47:36.807Z,34.98
2017-10-31T11:48:36.694Z,34.69
2017-10-31T11:49:36.565Z,33.64
2017-10-31T11:50:36.447Z,33.84
2017-10-31T11:51:36.326Z,34.79
2017-10-31T11:52:36.206Z,34.31
2017-10-31T11:53:36.091Z,34.69
2017-10-31T11:54:35.966Z,34.22
2017-10-31T11:55:35.847Z,34.98
2017-10-31T11:56:35.728Z,35.08
2017-10-31T11:57:35.605Z,34.98
2017-10-31T11:58:35.484Z,34.60
2017-10-31T11:59:35.363Z,34.79
2017-10-31T12:00:35.247Z,33.74
2017-10-31T12:01:35.123Z,33.64
2017-10-31T12:02:35.001Z,34.03
2017-10-31T12:03:34.883Z,34.79
2017-10-31T12:04:34.762Z,35.53
2017-10-31T12:05:34.641Z,34.96
2017-10-31T12:06:34.522Z,35.91
2017-10-31T12:07:34.402Z,35.93
2017-10-31T12:08:34.282Z,36.32
2017-10-31T12:09:34.160Z,36.12
2017-10-31T12:10:34.039Z,34.96
2017-10-31T12:11:33.916Z,35.15
2017-10-31T12:12:33.800Z,35.53
2017-10-31T12:13:33.678Z,36.51
2017-10-31T12:14:33.555Z,35.08
2017-10-31T12:15:33.438Z,33.63
2017-10-31T12:16:34.306Z,32.96
2017-10-31T12:17:33.196Z,33.45
2017-10-31T12:18:33.071Z,32.69
2017-10-31T12:19:32.954Z,32.98
2017-10-31T12:20:32.831Z,34.79
2017-10-31T12:21:32.730Z,33.74
2017-10-31T12:22:32.593Z,32.69
2017-10-31T12:23:32.471Z,32.69
2017-10-31T12:24:32.351Z,33.17
2017-10-31T12:25:32.231Z,32.98
2017-10-31T12:26:32.110Z,32.21
2017-10-31T12:27:31.989Z,32.69
2017-10-31T12:28:31.867Z,32.79
2017-10-31T12:29:31.746Z,32.60
2017-10-31T12:30:31.625Z,32.29
2017-10-31T12:31:31.505Z,32.68
2017-10-31T12:32:31.384Z,32.77
2017-10-31T12:33:31.265Z,33.91
2017-10-31T12:34:31.142Z,32.98
2017-10-31T12:35:31.022Z,33.45
2017-10-31T12:36:30.903Z,33.55
2017-10-31T12:37:30.782Z,32.88
2017-10-31T12:38:30.745Z,31.64
2017-10-31T12:39:30.538Z,32.40
2017-10-31T12:40:30.420Z,30.31
2017-10-31T12:41:30.300Z,30.50
2017-10-31T12:42:30.182Z,29.93
2017-10-31T12:43:30.057Z,30.98
2017-10-31T12:44:29.935Z,31.07
2017-10-31T12:45:30.528Z,30.98
2017-10-31T12:46:29.694Z,29.16
2017-10-31T12:47:29.573Z,29.05
2017-10-31T12:48:29.456Z,30.00
2017-10-31T12:49:29.333Z,29.91
2017-10-31T12:50:29.217Z,30.00